Holbaek, Denmark

9:27 PM CEST on July 31, 2015 (GMT +0200)
Gislinge | | Change Station
CLOSE
Current Station
Personal Weather Station
Location: Gislinge,
Elevation: 28 ft
Nearby Weather Stations

Elev 28 ft 55.73 °N, 11.55 °E | Updated 18 seconds ago

Scattered Clouds
Scattered Clouds
54.7 °F
Feels Like 54.7 °F
N
0.0
Wind Variable Wind from WNW
Gusts 0.0 mph

Today
High -- | Low -- °F
--% Chance of Precip.
Yesterday
High -- | Low -- °F
Precip. -- in
5:16 AM 9:22 PM
Full, 100% visible
Pressure 30.01 in
Visibility 6.2 miles
Clouds Scattered Clouds 5000 ft
Dew Point 46 °F
Humidity 73%
Rainfall 0.00 in
Snow Depth Not available.
UV 0 out of 12
Pollen Not available.
Air Quality Not available.
Flu Activity Not available.
METAR EKRK 311920Z AUTO 28007KT 9999NDV SCT050/// 12/08 Q1016

More Conditions Fewer Conditions

Pressure 30.01 in
Visibility 6.2 miles
Clouds Scattered Clouds 5000 ft
Dew Point 46 °F
Humidity 73%
Rainfall 0.00 in
Snow Depth Not available.
UV 0 out of 12
Pollen Not available.
Air Quality Not available.
Flu Activity Not available.
METAR EKRK 311920Z AUTO 28007KT 9999NDV SCT050/// 12/08 Q1016

More Conditions Fewer Conditions

10-Day Weather Forecast

×

Almanac

Astronomy

Jul. 31, 2015 Rise Set
Actual Time
Civil Twilight
Nautical Twilight
Astronomical Twilight
Moon
Length of Visible Light
Length of Day
Tomorrow will be .
, % of the Moon is Illuminated

Today's Extremes

Country Highs Country Lows

Community

WunderPhotos

Upload Photos

1,842,710 photos uploaded!

WunderBlogs® & News

Nearby

Air Quality

  Air Quality AQ Index Pollutant
Not available.

Snow Depth

Station Depth Elevation

Earthquake Activity

City Distance Mag. Time & Date
Minimum magnitude displayed is 2.5.

Coastal Water Temperatures

Place Temperature

Stations

Nearby Weather Stations

Station Location Temp. Windchill Dew Point Humidity Wind Precip. Elev Updated Type